createdAt,value
2022-08-17T00:06:20.276Z,21.3
2022-08-17T00:16:21.978Z,21.2
2022-08-17T00:26:34.835Z,21.1
2022-08-17T00:36:26.232Z,20.8
2022-08-17T00:46:28.720Z,20.6
2022-08-17T00:56:31.116Z,20.6
2022-08-17T01:06:33.534Z,20.5
2022-08-17T01:26:38.334Z,20.2
2022-08-17T01:36:40.309Z,20.1
2022-08-17T01:46:42.552Z,20
2022-08-17T01:56:47.291Z,20
2022-08-17T02:06:52.982Z,20
2022-08-17T02:16:49.699Z,19.6
2022-08-17T02:26:51.548Z,19.8
2022-08-17T02:36:53.781Z,19.2
2022-08-17T02:46:55.821Z,19.2
2022-08-17T02:56:57.646Z,19
2022-08-17T03:07:00.049Z,19
2022-08-17T03:17:01.923Z,18.9
2022-08-17T03:47:08.630Z,18.5
2022-08-17T03:57:10.586Z,18.6
2022-08-17T04:00:05.071Z,18.6
2022-08-17T04:07:23.050Z,18.6
2022-08-17T04:17:25.510Z,18.7
2022-08-17T04:27:27.963Z,18.5
2022-08-17T04:37:30.246Z,18.6
2022-08-17T04:47:32.752Z,18.7
2022-08-17T04:57:37.723Z,18.8
2022-08-17T05:07:37.379Z,18.8
2022-08-17T05:17:39.786Z,18.9
2022-08-17T05:27:41.970Z,19.1
2022-08-17T05:37:43.815Z,19.2
2022-08-17T05:57:53.445Z,19.3
2022-08-17T06:07:51.022Z,19.6
2022-08-17T06:17:53.354Z,19.8
2022-08-17T06:27:55.267Z,19.9
2022-08-17T06:37:57.717Z,20.7
2022-08-17T06:47:59.953Z,21.4
2022-08-17T06:58:01.889Z,21.6
2022-08-17T07:08:03.615Z,21.5
2022-08-17T07:18:06.166Z,21.8
2022-08-17T07:28:08.277Z,22.1
2022-08-17T07:38:24.549Z,22.1
2022-08-17T07:48:15.810Z,22.2
2022-08-17T07:58:15.530Z,22.3
2022-08-17T08:08:18.145Z,23
2022-08-17T08:18:38.875Z,23.3
2022-08-17T08:28:22.862Z,23.6
2022-08-17T08:48:46.418Z,24
2022-08-17T08:58:30.814Z,24.9
2022-08-17T09:08:32.148Z,25.1
2022-08-17T09:19:02.090Z,25.3
2022-08-17T09:28:36.671Z,25.3
2022-08-17T09:38:39.347Z,25.6
2022-08-17T09:48:41.381Z,25.7
2022-08-17T09:58:43.413Z,26.1
2022-08-17T10:08:46.034Z,26.1
2022-08-17T10:18:48.077Z,26.4
2022-08-17T10:28:49.987Z,26.1
2022-08-17T10:38:51.915Z,25.6
2022-08-17T10:48:53.614Z,25.8
2022-08-17T10:58:55.712Z,25.8
2022-08-17T11:08:57.789Z,25.6
2022-08-17T11:19:00.453Z,25.5
2022-08-17T11:29:02.182Z,25.1
2022-08-17T11:39:04.618Z,24.9
2022-08-17T11:49:06.781Z,24.8
2022-08-17T11:59:08.677Z,24.5
2022-08-17T12:09:10.964Z,24.4
2022-08-17T12:19:12.803Z,24
2022-08-17T12:29:17.991Z,24.4
2022-08-17T12:39:21.272Z,24.1
2022-08-17T12:49:19.681Z,24.1
2022-08-17T12:59:30.070Z,24.5
2022-08-17T13:09:24.093Z,24.7
2022-08-17T13:19:29.975Z,24.7
2022-08-17T13:29:28.410Z,25.3
2022-08-17T13:39:30.297Z,25.8
2022-08-17T13:49:41.762Z,25.7
2022-08-17T13:59:36.305Z,26
2022-08-17T14:09:37.515Z,26
2022-08-17T14:19:38.906Z,26.5
2022-08-17T14:29:40.790Z,26.1
2022-08-17T14:39:42.967Z,26.3
2022-08-17T14:49:47.008Z,25.8
2022-08-17T14:59:47.145Z,25.8
2022-08-17T15:09:49.709Z,25.6
2022-08-17T15:19:52.575Z,25.5
2022-08-17T15:29:55.198Z,25.3
2022-08-17T15:39:56.949Z,25.2
2022-08-17T15:50:00.217Z,25.2
2022-08-17T16:00:01.277Z,25.1
2022-08-17T16:10:02.846Z,24.9
2022-08-17T16:20:04.955Z,25.2
2022-08-17T16:30:06.972Z,25.5
2022-08-17T16:40:09.675Z,24.8
2022-08-17T16:50:11.235Z,25.1
2022-08-17T17:00:13.377Z,24.7
2022-08-17T17:10:15.519Z,24.6
2022-08-17T17:20:18.328Z,24.5
2022-08-17T17:30:20.953Z,24.2
2022-08-17T17:40:23.531Z,24.1
2022-08-17T17:50:25.442Z,24
2022-08-17T18:00:27.570Z,23.9
2022-08-17T18:10:30.748Z,23.8
2022-08-17T18:20:32.550Z,23.6
2022-08-17T18:40:35.812Z,23.2
2022-08-17T18:50:37.845Z,23
2022-08-17T19:00:39.555Z,22.7
2022-08-17T19:10:46.024Z,22.4
2022-08-17T19:20:43.544Z,22.3
2022-08-17T19:30:46.127Z,22.4
2022-08-17T19:40:53.076Z,22.2
2022-08-17T19:50:50.255Z,21.9
2022-08-17T20:00:52.627Z,21.8
2022-08-17T20:10:54.932Z,21.5
2022-08-17T20:20:57.343Z,21.3
2022-08-17T20:30:59.762Z,21.4
2022-08-17T20:41:02.240Z,21.1
2022-08-17T20:51:04.625Z,20.9
2022-08-17T21:01:06.684Z,20.8
2022-08-17T21:11:08.543Z,20.6
2022-08-17T21:31:13.147Z,20.6
2022-08-17T21:41:15.137Z,20.5
2022-08-17T22:01:19.735Z,19.8
2022-08-17T22:11:22.062Z,19.7
2022-08-17T22:21:24.635Z,19.8
2022-08-17T22:31:25.999Z,19.8
2022-08-17T22:41:27.870Z,19.7
2022-08-17T22:51:30.490Z,19.5
2022-08-17T23:01:32.940Z,19.4
2022-08-17T23:11:36.501Z,19.3
2022-08-17T23:21:37.586Z,19.4
2022-08-17T23:31:40.141Z,19.3
2022-08-17T23:51:44.621Z,19
